createdAt,value
2022-07-29T00:00:16.151Z,2.00
2022-07-29T00:01:19.192Z,2.15
2022-07-29T00:02:21.387Z,2.20
2022-07-29T00:03:23.043Z,1.98
2022-07-29T00:04:24.632Z,2.00
2022-07-29T00:05:26.555Z,2.10
2022-07-29T00:06:28.039Z,1.98
2022-07-29T00:07:29.531Z,2.00
2022-07-29T00:08:30.972Z,2.03
2022-07-29T00:09:33.899Z,2.20
2022-07-29T00:10:52.876Z,2.22
2022-07-29T00:11:58.093Z,1.92
2022-07-29T00:12:59.599Z,2.17
2022-07-29T00:14:01.187Z,2.20
2022-07-29T00:15:03.260Z,2.22
2022-07-29T00:16:05.431Z,2.22
2022-07-29T00:17:07.051Z,2.08
2022-07-29T00:18:08.559Z,1.95
2022-07-29T00:19:10.058Z,2.15
2022-07-29T00:20:12.564Z,2.10
2022-07-29T00:21:14.114Z,2.30
2022-07-29T00:22:15.856Z,2.08
2022-07-29T00:23:17.326Z,2.10
2022-07-29T00:24:19.399Z,2.00
2022-07-29T00:25:21.036Z,2.10
2022-07-29T00:26:22.740Z,2.75
2022-07-29T00:27:24.316Z,2.28
2022-07-29T00:28:25.854Z,2.30
2022-07-29T00:29:35.366Z,2.20
2022-07-29T00:30:36.952Z,2.15
2022-07-29T00:31:38.618Z,2.15
2022-07-29T00:32:40.322Z,2.00
2022-07-29T00:33:41.970Z,1.90
2022-07-29T00:35:02.427Z,2.05
2022-07-29T00:36:04.393Z,2.13
2022-07-29T00:37:05.920Z,2.10
2022-07-29T00:38:09.487Z,2.00
2022-07-29T00:39:10.976Z,1.95
2022-07-29T00:40:12.902Z,2.00
2022-07-29T00:41:14.387Z,2.05
2022-07-29T00:42:15.991Z,2.10
2022-07-29T00:43:18.148Z,2.13
2022-07-29T00:44:19.642Z,2.25
2022-07-29T00:45:21.594Z,2.00
2022-07-29T00:46:23.061Z,2.20
2022-07-29T00:47:24.545Z,1.90
2022-07-29T00:48:26.083Z,2.08
2022-07-29T00:49:27.608Z,2.10
2022-07-29T00:50:29.766Z,2.00
2022-07-29T00:51:31.472Z,1.90
2022-07-29T00:52:34.804Z,2.10
2022-07-29T00:53:37.281Z,2.10
2022-07-29T00:54:44.720Z,1.90
2022-07-29T00:55:46.815Z,2.33
2022-07-29T00:56:48.322Z,1.90
2022-07-29T00:57:50.411Z,2.00
2022-07-29T00:58:52.576Z,1.98
2022-07-29T00:59:54.379Z,1.90
2022-07-29T01:00:56.038Z,1.95
2022-07-29T01:01:57.631Z,2.13
2022-07-29T01:02:59.628Z,2.03
2022-07-29T01:04:01.122Z,2.10
2022-07-29T01:05:05.139Z,2.13
2022-07-29T01:06:06.858Z,2.00
2022-07-29T01:07:08.992Z,2.10
2022-07-29T01:08:13.705Z,2.10
2022-07-29T01:09:16.837Z,2.42
2022-07-29T01:10:38.760Z,1.92
2022-07-29T01:11:40.807Z,1.98
2022-07-29T01:12:45.074Z,1.92
2022-07-29T01:13:48.450Z,2.17
2022-07-29T01:14:51.362Z,2.08
2022-07-29T01:16:00.098Z,1.95
2022-07-29T01:17:12.791Z,2.20
2022-07-29T01:18:31.275Z,2.00
2022-07-29T01:20:17.546Z,2.10
2022-07-29T01:21:51.055Z,1.90
2022-07-29T01:23:07.647Z,2.00
2022-07-29T01:24:36.481Z,1.77
2022-07-29T01:25:47.155Z,2.00
2022-07-29T01:27:05.513Z,2.10
2022-07-29T01:28:07.960Z,2.00
2022-07-29T01:29:20.620Z,2.25
2022-07-29T01:30:26.819Z,2.20
2022-07-29T01:31:40.268Z,2.15
2022-07-29T01:33:03.121Z,2.15
2022-07-29T01:34:08.263Z,2.05
2022-07-29T01:35:24.470Z,1.90
2022-07-29T01:36:50.055Z,2.00
2022-07-29T01:37:58.544Z,1.88
2022-07-29T01:39:22.877Z,2.08
2022-07-29T01:40:35.549Z,2.03
2022-07-29T01:41:41.492Z,2.03
2022-07-29T01:42:45.505Z,1.80
2022-07-29T01:43:58.824Z,2.20
2022-07-29T01:45:07.089Z,1.98
2022-07-29T01:46:15.118Z,2.30
2022-07-29T01:47:21.588Z,2.15
2022-07-29T01:48:28.475Z,2.05
2022-07-29T01:49:36.563Z,2.20
2022-07-29T01:50:46.257Z,2.05
2022-07-29T01:51:52.758Z,2.13
2022-07-29T01:52:58.725Z,1.83
2022-07-29T01:54:19.699Z,1.85
2022-07-29T01:55:25.538Z,2.13
2022-07-29T01:56:32.327Z,2.10
2022-07-29T01:57:36.889Z,2.10
2022-07-29T01:58:40.987Z,2.05
2022-07-29T01:59:46.129Z,2.15
2022-07-29T02:00:49.756Z,1.92
2022-07-29T02:01:54.390Z,2.05
2022-07-29T02:02:57.857Z,2.20
2022-07-29T02:04:02.719Z,2.13
2022-07-29T02:05:07.447Z,2.10
2022-07-29T02:06:12.096Z,2.17
2022-07-29T02:07:16.605Z,2.20
2022-07-29T02:08:20.698Z,2.00
2022-07-29T02:09:24.339Z,1.90
2022-07-29T02:10:28.708Z,1.90
2022-07-29T02:11:34.532Z,2.10
2022-07-29T02:12:37.228Z,2.28
2022-07-29T02:13:40.040Z,1.98
2022-07-29T02:15:47.656Z,2.10
2022-07-29T02:16:53.139Z,2.28
2022-07-29T02:18:03.091Z,2.22
2022-07-29T02:19:06.158Z,2.20
2022-07-29T02:20:09.774Z,2.30
2022-07-29T02:21:15.118Z,2.30
2022-07-29T02:22:19.592Z,2.00
2022-07-29T02:23:25.325Z,2.03
2022-07-29T02:24:27.622Z,2.40
2022-07-29T02:25:37.066Z,2.00
2022-07-29T02:26:42.620Z,2.47
2022-07-29T02:27:45.785Z,2.10
2022-07-29T02:28:49.158Z,2.00
2022-07-29T02:29:52.180Z,2.13
2022-07-29T02:30:57.002Z,2.17
2022-07-29T02:32:00.690Z,2.30
2022-07-29T02:33:03.874Z,2.20
2022-07-29T02:34:08.073Z,2.05
2022-07-29T02:35:11.462Z,2.00
2022-07-29T02:36:13.452Z,1.92
2022-07-29T02:37:17.623Z,2.22
2022-07-29T02:38:40.089Z,2.05
2022-07-29T02:39:44.592Z,2.00
2022-07-29T02:40:46.640Z,2.22
2022-07-29T02:41:51.725Z,2.15
2022-07-29T02:42:53.681Z,2.55
2022-07-29T02:43:58.236Z,2.53
2022-07-29T02:44:59.733Z,2.25
2022-07-29T02:46:03.588Z,2.10
2022-07-29T02:47:23.897Z,2.35
2022-07-29T02:48:35.330Z,2.30
2022-07-29T02:49:47.978Z,2.20
2022-07-29T02:50:52.747Z,2.40
2022-07-29T02:51:59.150Z,2.17
2022-07-29T02:53:10.348Z,2.22
2022-07-29T02:54:21.198Z,2.20
2022-07-29T02:55:37.914Z,2.22
2022-07-29T02:56:41.427Z,2.20
2022-07-29T02:57:54.521Z,2.15
2022-07-29T02:59:01.170Z,2.30
2022-07-29T03:00:07.289Z,2.47
2022-07-29T03:01:22.683Z,2.50
2022-07-29T03:02:27.048Z,2.15
2022-07-29T03:03:37.312Z,2.45
2022-07-29T03:04:42.498Z,2.25
2022-07-29T03:05:44.102Z,2.30
2022-07-29T03:06:47.024Z,2.15
2022-07-29T03:08:05.216Z,2.10
2022-07-29T03:09:13.570Z,2.35
2022-07-29T03:10:15.361Z,2.40
2022-07-29T03:11:18.673Z,2.30
2022-07-29T03:12:21.048Z,2.20
2022-07-29T03:13:23.777Z,2.38
2022-07-29T03:14:26.611Z,2.42
2022-07-29T03:16:30.736Z,2.38
2022-07-29T03:17:33.359Z,2.55
2022-07-29T03:18:36.198Z,2.50
2022-07-29T03:20:40.608Z,2.65
2022-07-29T03:21:42.079Z,2.35
2022-07-29T03:22:47.720Z,2.17
2022-07-29T03:23:49.159Z,2.47
2022-07-29T03:24:50.629Z,2.20
2022-07-29T03:25:52.473Z,2.10
2022-07-29T03:26:55.817Z,2.53
2022-07-29T03:27:58.076Z,2.28
2022-07-29T03:28:59.517Z,2.70
2022-07-29T03:30:01.122Z,2.05
2022-07-29T03:31:02.688Z,2.40
2022-07-29T03:32:07.926Z,2.30
2022-07-29T03:33:13.604Z,2.50
2022-07-29T03:34:15.645Z,2.50
2022-07-29T03:35:17.737Z,2.58
2022-07-29T03:36:19.153Z,2.42
2022-07-29T03:37:20.639Z,2.30
2022-07-29T03:38:26.079Z,2.15
2022-07-29T03:39:32.296Z,2.60
2022-07-29T03:40:41.465Z,2.45
2022-07-29T03:41:45.357Z,2.17
2022-07-29T03:42:48.176Z,2.13
2022-07-29T03:44:53.780Z,2.63
2022-07-29T03:45:57.358Z,2.50
2022-07-29T03:47:02.933Z,2.50
2022-07-29T03:48:11.438Z,2.33
2022-07-29T03:49:15.869Z,2.65
2022-07-29T03:50:20.373Z,2.80
2022-07-29T03:51:33.817Z,2.70
2022-07-29T03:52:36.316Z,2.40
2022-07-29T03:53:38.906Z,2.38
2022-07-29T03:54:41.218Z,2.70
2022-07-29T03:55:47.572Z,2.67
2022-07-29T03:56:51.233Z,2.47
2022-07-29T03:57:53.528Z,2.60
2022-07-29T03:58:56.103Z,2.53
2022-07-29T03:59:58.562Z,2.40
2022-07-29T04:01:00.532Z,2.50
2022-07-29T04:02:04.905Z,2.60
2022-07-29T04:03:10.835Z,2.42
2022-07-29T04:04:13.983Z,2.60
2022-07-29T04:05:16.272Z,2.47
2022-07-29T04:06:17.744Z,2.70
2022-07-29T04:07:19.393Z,2.60
2022-07-29T04:08:21.159Z,2.65
2022-07-29T04:09:22.647Z,2.33
2022-07-29T04:10:30.133Z,2.42
2022-07-29T04:11:33.062Z,2.47
2022-07-29T04:12:54.792Z,2.70
2022-07-29T04:13:56.254Z,2.70
2022-07-29T04:14:57.709Z,2.67
2022-07-29T04:15:59.496Z,2.50
2022-07-29T04:17:04.017Z,2.30
2022-07-29T04:18:05.889Z,2.70
2022-07-29T04:19:07.315Z,2.30
2022-07-29T04:20:09.402Z,2.42
2022-07-29T04:21:10.862Z,2.72
2022-07-29T04:22:12.381Z,2.53
2022-07-29T04:23:14.267Z,2.78
2022-07-29T04:24:16.308Z,2.63
2022-07-29T04:25:18.253Z,2.72
2022-07-29T04:26:20.763Z,2.53
2022-07-29T04:27:22.298Z,2.65
2022-07-29T04:28:23.760Z,2.60
2022-07-29T04:29:25.243Z,2.65
2022-07-29T04:30:27.197Z,2.70
2022-07-29T04:31:28.808Z,2.70
2022-07-29T04:32:30.327Z,2.85
2022-07-29T04:33:32.188Z,2.80
2022-07-29T04:34:33.662Z,2.53
2022-07-29T04:35:45.737Z,2.67
2022-07-29T04:36:53.752Z,2.65
2022-07-29T04:37:55.567Z,2.70
2022-07-29T04:38:57.102Z,2.42
2022-07-29T04:39:58.578Z,2.72
2022-07-29T04:41:00.160Z,2.53
2022-07-29T04:42:01.806Z,2.85
2022-07-29T04:43:05.837Z,2.70
2022-07-29T04:44:07.784Z,2.42
2022-07-29T04:45:10.650Z,2.70
2022-07-29T04:46:12.274Z,2.78
2022-07-29T04:47:13.894Z,2.47
2022-07-29T04:48:15.746Z,2.58
2022-07-29T04:49:17.279Z,2.40
2022-07-29T04:50:18.872Z,2.78
2022-07-29T04:51:20.342Z,2.58
2022-07-29T04:52:21.782Z,2.40
2022-07-29T04:53:23.424Z,2.40
2022-07-29T04:54:25.556Z,2.70
2022-07-29T04:55:27.443Z,2.88
2022-07-29T04:56:29.009Z,2.67
2022-07-29T04:57:30.955Z,2.95
2022-07-29T04:58:32.434Z,2.70
2022-07-29T04:59:33.917Z,2.60
2022-07-29T05:00:35.628Z,2.90
2022-07-29T05:01:37.141Z,2.70
2022-07-29T05:02:38.797Z,2.60
2022-07-29T05:03:40.255Z,2.80
2022-07-29T05:04:41.757Z,2.90
2022-07-29T05:05:43.419Z,2.88
2022-07-29T05:06:44.905Z,2.78
2022-07-29T05:07:46.653Z,2.45
2022-07-29T05:08:48.145Z,2.72
2022-07-29T05:09:50.015Z,2.70
2022-07-29T05:10:51.753Z,2.72
2022-07-29T05:11:53.197Z,2.80
2022-07-29T05:12:54.674Z,2.80
2022-07-29T05:13:56.123Z,3.10
2022-07-29T05:14:57.630Z,2.78
2022-07-29T05:15:59.442Z,2.70
2022-07-29T05:17:01.289Z,2.60
2022-07-29T05:18:02.849Z,2.90
2022-07-29T05:19:04.311Z,2.85
2022-07-29T05:20:06.908Z,2.78
2022-07-29T05:21:08.427Z,2.65
2022-07-29T05:22:10.233Z,2.50
2022-07-29T05:23:13.752Z,2.60
2022-07-29T05:24:15.431Z,2.80
2022-07-29T05:25:17.755Z,2.88
2022-07-29T05:26:19.366Z,2.70
2022-07-29T05:27:20.946Z,2.67
2022-07-29T05:28:22.705Z,3.20
2022-07-29T05:29:42.958Z,2.67
2022-07-29T05:30:45.736Z,2.83
2022-07-29T05:31:47.201Z,3.20
2022-07-29T05:32:48.728Z,2.80
2022-07-29T05:33:50.204Z,2.63
2022-07-29T05:34:51.988Z,2.72
2022-07-29T05:35:57.267Z,2.50
2022-07-29T05:37:01.618Z,2.80
2022-07-29T05:38:03.075Z,2.80
2022-07-29T05:39:05.219Z,2.70
2022-07-29T05:40:07.054Z,2.40
2022-07-29T05:41:08.519Z,2.80
2022-07-29T05:42:11.381Z,2.45
2022-07-29T05:44:15.042Z,2.50
2022-07-29T05:45:16.671Z,2.20
2022-07-29T05:46:18.243Z,2.38
2022-07-29T05:47:19.920Z,2.35
2022-07-29T05:48:21.757Z,2.60
2022-07-29T05:49:27.299Z,2.58
2022-07-29T05:50:29.041Z,2.38
2022-07-29T05:51:31.203Z,2.45
2022-07-29T05:52:32.730Z,2.58
2022-07-29T05:53:34.350Z,2.60
2022-07-29T05:54:36.380Z,2.50
2022-07-29T05:55:37.905Z,2.10
2022-07-29T05:56:40.955Z,2.42
2022-07-29T05:57:44.431Z,2.40
2022-07-29T05:58:45.905Z,2.30
2022-07-29T05:59:48.034Z,2.05
2022-07-29T06:00:49.578Z,2.50
2022-07-29T06:01:51.216Z,2.40
2022-07-29T06:02:52.712Z,2.55
2022-07-29T06:03:54.472Z,2.25
2022-07-29T06:04:56.098Z,2.30
2022-07-29T06:05:57.645Z,2.15
2022-07-29T06:06:59.072Z,2.20
2022-07-29T06:08:00.599Z,2.50
2022-07-29T06:09:09.102Z,2.60
2022-07-29T06:10:14.183Z,2.40
2022-07-29T06:11:15.624Z,2.28
2022-07-29T06:12:17.079Z,2.40
2022-07-29T06:13:18.536Z,2.70
2022-07-29T06:14:20.681Z,2.38
2022-07-29T06:15:22.191Z,2.47
2022-07-29T06:16:29.896Z,2.10
2022-07-29T06:17:31.843Z,2.20
2022-07-29T06:18:33.289Z,2.20
2022-07-29T06:19:36.354Z,2.40
2022-07-29T06:20:37.869Z,2.20
2022-07-29T06:21:46.780Z,2.42
2022-07-29T06:23:49.737Z,2.40
2022-07-29T06:24:51.198Z,2.30
2022-07-29T06:25:52.661Z,2.47
2022-07-29T06:26:54.247Z,2.30
2022-07-29T06:27:55.864Z,2.50
2022-07-29T06:28:57.371Z,2.70
2022-07-29T06:29:58.961Z,2.40
2022-07-29T06:31:00.744Z,2.42
2022-07-29T06:32:03.213Z,2.97
2022-07-29T06:33:05.518Z,2.53
2022-07-29T06:34:07.507Z,2.50
2022-07-29T06:35:38.249Z,2.40
2022-07-29T06:36:31.328Z,2.33
2022-07-29T06:37:33.229Z,2.38
2022-07-29T06:38:40.621Z,2.17
2022-07-29T06:39:46.410Z,2.30
2022-07-29T06:41:06.446Z,2.42
2022-07-29T06:42:07.978Z,2.85
2022-07-29T06:43:09.773Z,2.40
2022-07-29T06:44:11.240Z,2.55
2022-07-29T06:45:13.537Z,2.63
2022-07-29T06:46:16.643Z,2.60
2022-07-29T06:47:18.155Z,2.25
2022-07-29T06:48:19.606Z,2.45
2022-07-29T06:49:21.157Z,2.53
2022-07-29T06:50:22.745Z,2.50
2022-07-29T06:51:24.394Z,2.60
2022-07-29T06:52:26.425Z,2.40
2022-07-29T06:53:28.569Z,2.58
2022-07-29T06:54:30.073Z,2.45
2022-07-29T06:55:31.734Z,2.60
2022-07-29T06:56:38.323Z,2.25
2022-07-29T06:57:42.034Z,2.83
2022-07-29T06:58:43.566Z,2.47
2022-07-29T06:59:45.020Z,2.20
2022-07-29T07:00:47.346Z,2.55
2022-07-29T07:01:48.984Z,2.70
2022-07-29T07:02:50.545Z,2.50
2022-07-29T07:03:52.111Z,3.00
2022-07-29T07:04:53.596Z,2.78
2022-07-29T07:05:55.874Z,2.70
2022-07-29T07:06:57.449Z,2.47
2022-07-29T07:07:58.928Z,2.50
2022-07-29T07:09:00.470Z,2.67
2022-07-29T07:10:02.164Z,2.58
2022-07-29T07:11:04.963Z,2.75
2022-07-29T07:13:08.568Z,2.50
2022-07-29T07:14:10.025Z,2.58
2022-07-29T07:15:11.733Z,2.50
2022-07-29T07:16:13.233Z,2.40
2022-07-29T07:17:14.826Z,3.42
2022-07-29T07:18:16.890Z,3.05
2022-07-29T07:19:20.146Z,2.58
2022-07-29T07:20:21.678Z,2.67
2022-07-29T07:21:23.270Z,2.85
2022-07-29T07:22:24.860Z,2.58
2022-07-29T07:23:26.360Z,2.72
2022-07-29T07:24:27.853Z,2.40
2022-07-29T07:25:29.504Z,2.60
2022-07-29T07:26:31.022Z,2.55
2022-07-29T07:27:32.499Z,2.40
2022-07-29T07:28:34.075Z,2.72
2022-07-29T07:29:35.655Z,2.90
2022-07-29T07:30:37.384Z,2.58
2022-07-29T07:31:39.167Z,2.70
2022-07-29T07:32:41.145Z,2.80
2022-07-29T07:33:42.663Z,2.80
2022-07-29T07:34:44.425Z,2.42
2022-07-29T07:35:45.940Z,2.65
2022-07-29T07:36:47.458Z,2.80
2022-07-29T07:37:49.067Z,2.88
2022-07-29T07:38:50.665Z,2.70
2022-07-29T07:39:55.296Z,2.50
2022-07-29T07:40:56.800Z,2.85
2022-07-29T07:41:58.278Z,2.70
2022-07-29T07:42:59.766Z,2.63
2022-07-29T07:44:01.395Z,2.80
2022-07-29T07:45:13.601Z,2.67
2022-07-29T07:46:16.241Z,3.00
2022-07-29T07:47:20.774Z,2.90
2022-07-29T07:48:23.791Z,2.88
2022-07-29T07:49:25.343Z,2.90
2022-07-29T07:50:27.042Z,2.80
2022-07-29T07:51:28.641Z,2.70
2022-07-29T07:52:30.100Z,3.25
2022-07-29T07:53:31.655Z,2.97
2022-07-29T07:54:34.164Z,2.60
2022-07-29T07:56:08.245Z,2.80
2022-07-29T07:58:04.161Z,2.70
2022-07-29T07:59:05.589Z,2.58
2022-07-29T08:00:07.740Z,2.75
2022-07-29T08:01:10.363Z,2.70
2022-07-29T08:02:12.134Z,2.63
2022-07-29T08:03:17.042Z,2.50
2022-07-29T08:04:22.222Z,2.95
2022-07-29T08:05:28.320Z,2.97
2022-07-29T08:06:29.781Z,3.20
2022-07-29T08:07:31.308Z,3.00
2022-07-29T08:08:32.940Z,2.85
2022-07-29T08:09:35.342Z,3.03
2022-07-29T08:10:56.304Z,2.70
2022-07-29T08:12:00.196Z,2.58
2022-07-29T08:13:04.179Z,2.70
2022-07-29T08:14:05.727Z,2.65
2022-07-29T08:15:08.663Z,2.70
2022-07-29T08:16:13.967Z,2.83
2022-07-29T08:17:15.772Z,2.90
2022-07-29T08:18:18.349Z,2.90
2022-07-29T08:19:19.925Z,2.83
2022-07-29T08:20:21.370Z,2.97
2022-07-29T08:21:23.243Z,3.10
2022-07-29T08:22:24.688Z,3.38
2022-07-29T08:23:32.948Z,3.40
2022-07-29T08:24:54.127Z,2.95
2022-07-29T08:25:57.412Z,3.40
2022-07-29T08:26:59.064Z,2.85
2022-07-29T08:28:00.510Z,3.17
2022-07-29T08:29:01.984Z,3.40
2022-07-29T08:30:04.723Z,3.60
2022-07-29T08:32:08.246Z,3.25
2022-07-29T08:33:09.777Z,3.65
2022-07-29T08:34:11.220Z,2.90
2022-07-29T08:35:12.707Z,3.33
2022-07-29T08:36:14.510Z,3.30
2022-07-29T08:37:16.412Z,3.35
2022-07-29T08:38:17.892Z,2.90
2022-07-29T08:39:19.334Z,2.72
2022-07-29T08:40:32.247Z,2.95
2022-07-29T08:41:34.178Z,3.08
2022-07-29T08:42:36.546Z,3.17
2022-07-29T08:43:39.119Z,3.08
2022-07-29T08:44:40.694Z,3.10
2022-07-29T08:45:48.501Z,2.90
2022-07-29T08:46:50.831Z,3.15
2022-07-29T08:47:53.391Z,3.33
2022-07-29T08:48:56.344Z,2.90
2022-07-29T08:49:57.939Z,2.88
2022-07-29T08:51:00.182Z,2.97
2022-07-29T08:52:02.057Z,4.10
2022-07-29T08:53:04.218Z,3.10
2022-07-29T08:54:06.565Z,2.78
2022-07-29T08:55:10.585Z,2.70
2022-07-29T08:56:20.063Z,3.15
2022-07-29T08:57:22.503Z,2.92
2022-07-29T08:58:26.378Z,3.05
2022-07-29T08:59:31.334Z,2.80
2022-07-29T09:00:33.015Z,3.28
2022-07-29T09:01:42.803Z,2.70
2022-07-29T09:02:52.689Z,3.25
2022-07-29T09:03:57.939Z,3.30
2022-07-29T09:05:02.429Z,2.97
2022-07-29T09:06:04.822Z,2.90
2022-07-29T09:07:07.120Z,3.10
2022-07-29T09:08:09.173Z,3.25
2022-07-29T09:09:11.261Z,3.15
2022-07-29T09:10:12.808Z,2.92
2022-07-29T09:11:14.846Z,3.33
2022-07-29T09:12:28.609Z,3.13
2022-07-29T09:13:31.481Z,3.00
2022-07-29T09:14:33.013Z,3.13
2022-07-29T09:15:34.449Z,3.17
2022-07-29T09:16:53.044Z,3.03
2022-07-29T09:17:56.382Z,3.40
2022-07-29T09:18:57.836Z,3.30
2022-07-29T09:20:13.291Z,3.17
2022-07-29T09:21:36.769Z,3.10
2022-07-29T09:22:42.177Z,3.35
2022-07-29T09:24:08.032Z,3.20
2022-07-29T09:25:12.636Z,3.00
2022-07-29T09:26:14.063Z,3.22
2022-07-29T09:27:18.259Z,2.97
2022-07-29T09:28:19.802Z,2.80
2022-07-29T09:29:24.038Z,3.08
2022-07-29T09:30:31.646Z,3.72
2022-07-29T09:31:36.075Z,2.80
2022-07-29T09:32:56.875Z,2.78
2022-07-29T09:34:01.193Z,2.80
2022-07-29T09:35:35.056Z,2.80
2022-07-29T09:36:45.484Z,2.90
2022-07-29T09:37:47.861Z,3.28
2022-07-29T09:38:59.708Z,3.00
2022-07-29T09:40:12.041Z,3.00
2022-07-29T09:41:15.037Z,3.50
2022-07-29T09:42:29.234Z,3.10
2022-07-29T09:43:30.850Z,3.20
2022-07-29T09:44:50.921Z,3.00
2022-07-29T09:45:52.513Z,3.17
2022-07-29T09:47:07.185Z,3.03
2022-07-29T09:48:20.341Z,3.05
2022-07-29T09:49:21.862Z,3.17
2022-07-29T09:50:26.695Z,3.60
2022-07-29T09:51:38.255Z,3.22
2022-07-29T09:52:51.496Z,2.90
2022-07-29T09:53:53.346Z,3.10
2022-07-29T09:55:06.135Z,3.45
2022-07-29T09:56:07.653Z,3.60
2022-07-29T09:57:22.108Z,3.25
2022-07-29T09:58:23.811Z,3.47
2022-07-29T09:59:27.503Z,3.17
2022-07-29T10:00:29.625Z,3.25
2022-07-29T10:01:31.427Z,3.35
2022-07-29T10:02:35.159Z,4.00
2022-07-29T10:03:56.353Z,4.20
2022-07-29T10:04:58.075Z,3.95
2022-07-29T10:06:06.429Z,4.00
2022-07-29T10:07:08.185Z,4.13
2022-07-29T10:08:13.551Z,4.03
2022-07-29T10:09:14.999Z,3.70
2022-07-29T10:10:29.652Z,3.75
2022-07-29T10:11:48.088Z,3.63
2022-07-29T10:13:07.156Z,3.60
2022-07-29T10:14:10.448Z,3.13
2022-07-29T10:15:11.937Z,3.30
2022-07-29T10:16:14.908Z,3.38
2022-07-29T10:17:17.360Z,3.80
2022-07-29T10:18:20.916Z,3.63
2022-07-29T10:19:22.759Z,3.60
2022-07-29T10:20:26.071Z,3.88
2022-07-29T10:21:35.434Z,4.35
2022-07-29T10:23:54.157Z,3.70
2022-07-29T10:26:04.445Z,4.18
2022-07-29T10:27:09.240Z,3.90
2022-07-29T10:28:15.773Z,3.80
2022-07-29T10:29:17.870Z,3.78
2022-07-29T10:30:21.269Z,3.40
2022-07-29T10:31:30.698Z,3.60
2022-07-29T10:32:32.182Z,3.72
2022-07-29T10:34:08.143Z,4.05
2022-07-29T10:35:40.315Z,3.70
2022-07-29T10:36:55.934Z,3.80
2022-07-29T10:38:32.067Z,3.58
2022-07-29T10:40:31.175Z,3.78
2022-07-29T10:41:52.079Z,3.80
2022-07-29T10:42:54.934Z,3.67
2022-07-29T10:43:59.738Z,3.63
2022-07-29T10:45:04.366Z,3.67
2022-07-29T10:46:07.412Z,3.78
2022-07-29T10:47:20.114Z,3.90
2022-07-29T10:48:23.594Z,4.00
2022-07-29T10:49:30.734Z,3.97
2022-07-29T10:51:03.853Z,3.80
2022-07-29T10:52:06.695Z,3.85
2022-07-29T10:53:09.011Z,3.70
2022-07-29T10:54:17.016Z,3.97
2022-07-29T10:56:45.326Z,3.90
2022-07-29T10:58:15.434Z,3.90
2022-07-29T10:59:22.813Z,4.07
2022-07-29T11:00:29.812Z,3.70
2022-07-29T11:01:37.442Z,3.88
2022-07-29T11:02:41.279Z,3.92
2022-07-29T11:03:53.752Z,3.78
2022-07-29T11:04:58.877Z,3.95
2022-07-29T11:06:00.419Z,3.78
2022-07-29T11:07:03.916Z,4.10
2022-07-29T11:08:20.308Z,3.67
2022-07-29T11:09:35.122Z,4.30
2022-07-29T11:10:41.222Z,4.00
2022-07-29T11:11:44.039Z,3.80
2022-07-29T11:12:53.443Z,4.35
2022-07-29T11:13:56.141Z,4.13
2022-07-29T11:15:03.498Z,3.97
2022-07-29T11:16:07.083Z,4.00
2022-07-29T11:17:10.073Z,4.00
2022-07-29T11:18:17.564Z,3.88
2022-07-29T11:19:26.456Z,4.28
2022-07-29T11:20:37.792Z,4.28
2022-07-29T11:21:54.056Z,4.07
2022-07-29T11:22:57.046Z,3.95
2022-07-29T11:24:13.642Z,4.40
2022-07-29T11:25:50.237Z,4.22
2022-07-29T11:26:42.921Z,4.38
2022-07-29T11:29:25.013Z,4.30
2022-07-29T11:30:52.232Z,4.13
2022-07-29T11:32:10.714Z,5.03
2022-07-29T11:33:54.535Z,4.60
2022-07-29T11:35:18.483Z,4.38
2022-07-29T11:36:28.254Z,4.63
2022-07-29T11:37:30.815Z,4.70
2022-07-29T11:38:33.412Z,4.35
2022-07-29T11:39:37.591Z,4.53
2022-07-29T11:40:39.269Z,4.45
2022-07-29T11:41:44.153Z,4.38
2022-07-29T11:42:47.313Z,4.25
2022-07-29T11:45:43.614Z,4.47
2022-07-29T11:46:46.892Z,4.18
2022-07-29T11:47:50.617Z,4.75
2022-07-29T11:48:52.799Z,4.57
2022-07-29T11:49:56.086Z,4.38
2022-07-29T11:51:09.754Z,4.28
2022-07-29T11:52:12.131Z,4.13
2022-07-29T11:53:15.522Z,4.15
2022-07-29T11:54:27.648Z,4.25
2022-07-29T11:55:32.420Z,4.10
2022-07-29T11:56:49.316Z,4.00
2022-07-29T11:58:04.394Z,4.30
2022-07-29T11:59:08.343Z,4.25
2022-07-29T12:00:12.519Z,4.40
2022-07-29T12:01:18.405Z,4.47
2022-07-29T12:02:36.594Z,4.30
2022-07-29T12:03:39.218Z,4.57
2022-07-29T12:04:55.256Z,4.35
2022-07-29T12:05:56.921Z,4.40
2022-07-29T12:07:00.382Z,4.93
2022-07-29T12:08:20.905Z,4.20
2022-07-29T12:09:23.472Z,4.35
2022-07-29T12:10:31.647Z,4.32
2022-07-29T12:11:35.020Z,4.57
2022-07-29T12:12:36.848Z,4.05
2022-07-29T12:13:40.993Z,4.20
2022-07-29T12:14:46.558Z,4.15
2022-07-29T12:15:55.654Z,4.30
2022-07-29T12:17:01.592Z,4.53
2022-07-29T12:18:15.784Z,4.03
2022-07-29T12:19:19.722Z,4.35
2022-07-29T12:20:29.510Z,4.07
2022-07-29T12:21:56.810Z,4.18
2022-07-29T12:22:58.792Z,4.18
2022-07-29T12:24:08.818Z,4.00
2022-07-29T12:25:32.869Z,4.60
2022-07-29T12:26:35.762Z,4.10
2022-07-29T12:27:40.447Z,4.07
2022-07-29T12:28:42.471Z,4.20
2022-07-29T12:30:03.336Z,4.20
2022-07-29T12:31:05.811Z,4.25
2022-07-29T12:32:14.587Z,4.22
2022-07-29T12:33:21.241Z,4.20
2022-07-29T12:34:27.653Z,4.22
2022-07-29T12:35:29.195Z,4.60
2022-07-29T12:36:31.357Z,4.88
2022-07-29T12:37:41.252Z,4.20
2022-07-29T12:38:45.394Z,4.38
2022-07-29T12:40:49.676Z,3.95
2022-07-29T12:41:51.137Z,4.07
2022-07-29T12:43:16.033Z,3.95
2022-07-29T12:44:17.503Z,3.90
2022-07-29T12:45:29.623Z,4.20
2022-07-29T12:46:31.254Z,4.05
2022-07-29T12:47:33.335Z,4.05
2022-07-29T12:48:41.294Z,4.13
2022-07-29T12:49:42.874Z,4.10
2022-07-29T12:51:02.259Z,4.20
2022-07-29T12:52:26.350Z,3.90
2022-07-29T12:53:28.584Z,4.28
2022-07-29T12:54:30.379Z,4.13
2022-07-29T12:55:49.734Z,3.83
2022-07-29T12:57:00.716Z,5.10
2022-07-29T12:58:02.292Z,4.60
2022-07-29T12:59:22.089Z,4.25
2022-07-29T13:00:25.082Z,4.20
2022-07-29T13:01:28.231Z,4.28
2022-07-29T13:02:29.840Z,4.10
2022-07-29T13:03:57.039Z,4.00
2022-07-29T13:05:01.509Z,4.57
2022-07-29T13:06:02.957Z,4.55
2022-07-29T13:07:09.129Z,4.18
2022-07-29T13:08:20.431Z,4.35
2022-07-29T13:09:24.374Z,4.18
2022-07-29T13:10:26.080Z,4.53
2022-07-29T13:11:48.649Z,4.60
2022-07-29T13:13:03.026Z,4.10
2022-07-29T13:14:06.980Z,3.92
2022-07-29T13:15:16.369Z,3.72
2022-07-29T13:16:17.862Z,4.25
2022-07-29T13:17:23.847Z,3.78
2022-07-29T13:18:33.072Z,3.97
2022-07-29T13:19:43.947Z,4.07
2022-07-29T13:20:45.454Z,3.60
2022-07-29T13:21:46.895Z,3.80
2022-07-29T13:22:49.067Z,3.80
2022-07-29T13:23:50.786Z,4.13
2022-07-29T13:24:54.067Z,3.95
2022-07-29T13:25:55.499Z,4.43
2022-07-29T13:26:57.102Z,4.10
2022-07-29T13:27:59.957Z,3.60
2022-07-29T13:29:02.067Z,4.53
2022-07-29T13:30:06.749Z,12.75
2022-07-29T13:31:08.683Z,8.05
2022-07-29T13:32:10.363Z,11.43
2022-07-29T13:33:11.810Z,5.00
2022-07-29T13:34:13.380Z,10.02
2022-07-29T13:35:15.260Z,5.15
2022-07-29T13:36:16.955Z,4.60
2022-07-29T13:37:18.911Z,4.75
2022-07-29T13:38:20.382Z,4.45
2022-07-29T13:39:21.842Z,4.13
2022-07-29T13:40:23.620Z,4.30
2022-07-29T13:41:25.072Z,4.10
2022-07-29T13:42:27.590Z,3.85
2022-07-29T13:43:29.033Z,3.95
2022-07-29T13:44:30.563Z,4.38
2022-07-29T13:45:32.099Z,4.35
2022-07-29T13:46:33.937Z,4.03
2022-07-29T13:47:35.649Z,4.22
2022-07-29T13:48:37.194Z,4.45
2022-07-29T13:49:38.757Z,4.20
2022-07-29T13:50:40.589Z,4.07
2022-07-29T13:51:42.039Z,4.50
2022-07-29T13:52:43.919Z,4.43
2022-07-29T13:53:45.382Z,4.75
2022-07-29T13:54:47.907Z,4.75
2022-07-29T13:55:49.349Z,5.40
2022-07-29T13:56:51.577Z,5.22
2022-07-29T13:57:53.079Z,4.53
2022-07-29T13:58:54.512Z,4.07
2022-07-29T13:59:56.531Z,4.32
2022-07-29T14:01:01.749Z,4.55
2022-07-29T14:02:04.039Z,4.25
2022-07-29T14:03:05.492Z,4.30
2022-07-29T14:04:06.979Z,4.10
2022-07-29T14:05:11.030Z,4.10
2022-07-29T14:06:12.701Z,4.00
2022-07-29T14:07:16.455Z,6.75
2022-07-29T14:08:18.221Z,4.00
2022-07-29T14:09:19.856Z,3.50
2022-07-29T14:10:21.827Z,3.90
2022-07-29T14:11:23.353Z,3.42
2022-07-29T14:12:24.804Z,3.35
2022-07-29T14:13:26.436Z,3.38
2022-07-29T14:14:28.429Z,3.47
2022-07-29T14:15:29.885Z,3.70
2022-07-29T14:16:31.533Z,3.60
2022-07-29T14:17:33.016Z,3.70
2022-07-29T14:18:34.670Z,3.60
2022-07-29T14:19:36.998Z,3.53
2022-07-29T14:20:38.470Z,3.30
2022-07-29T14:21:40.046Z,3.50
2022-07-29T14:22:42.625Z,3.70
2022-07-29T14:23:46.665Z,3.30
2022-07-29T14:24:48.988Z,3.60
2022-07-29T14:25:50.781Z,3.22
2022-07-29T14:26:52.847Z,3.05
2022-07-29T14:27:55.170Z,3.13
2022-07-29T14:29:00.082Z,3.30
2022-07-29T14:30:01.969Z,3.80
2022-07-29T14:31:03.469Z,3.30
2022-07-29T14:32:11.364Z,3.42
2022-07-29T14:33:13.503Z,3.53
2022-07-29T14:34:16.494Z,3.67
2022-07-29T14:35:18.338Z,3.70
2022-07-29T14:36:19.777Z,3.65
2022-07-29T14:37:22.932Z,4.40
2022-07-29T14:38:24.758Z,4.20
2022-07-29T14:39:31.718Z,4.13
2022-07-29T14:40:33.662Z,4.35
2022-07-29T14:41:35.179Z,4.60
2022-07-29T14:42:38.038Z,4.25
2022-07-29T14:43:39.820Z,4.50
2022-07-29T14:44:42.406Z,4.43